Time,TemperatureF,DewpointF,PressureIn,WindDirection,WindDirectionDegrees,WindSpeedMPH,WindSpeedGustMPH,Humidity,HourlyPrecipIn,Conditions,Clouds,dailyrainin,SoftwareType,DateUTC
2013-02-25 00:00:00,16.1,14.9,30.05,NNW,328,0.0,22.0,95,0.00,,,0.00,Wunderground v.1.15,2013-02-25 04:00:00,
2013-02-25 00:10:00,17.2,15.8,30.05,NW,317,1.0,1.0,94,0.00,,,0.00,Wunderground v.1.15,2013-02-25 04:10:00,
2013-02-25 00:20:00,17.6,16.2,30.05,NNW,345,0.0,22.0,94,0.00,,,0.00,Wunderground v.1.15,2013-02-25 04:20:00,
2013-02-25 00:30:00,18.0,16.6,30.05,North,9,1.0,22.0,94,0.00,,,0.00,Wunderground v.1.15,2013-02-25 04:30:00,
2013-02-25 00:40:00,17.9,16.2,30.05,NNW,328,1.0,1.0,93,0.00,,,0.00,Wunderground v.1.15,2013-02-25 04:40:00,
2013-02-25 00:50:00,17.4,15.7,30.04,NNW,341,0.0,22.0,93,0.00,,,0.00,Wunderground v.1.15,2013-02-25 04:50:00,
2013-02-25 01:00:00,16.7,15.0,30.04,NNW,329,0.0,22.0,93,0.00,,,0.00,Wunderground v.1.15,2013-02-25 05:00:00,
2013-02-25 01:10:00,16.5,14.8,30.04,NW,323,0.0,22.0,93,0.00,,,0.00,Wunderground v.1.15,2013-02-25 05:10:00,
2013-02-25 01:20:00,16.3,14.6,30.04,WNW,300,0.0,22.0,93,0.00,,,0.00,Wunderground v.1.15,2013-02-25 05:20:00,
2013-02-25 01:30:00,16.1,14.4,30.04,WNW,295,0.0,22.0,93,0.00,,,0.00,Wunderground v.1.15,2013-02-25 05:30:00,
2013-02-25 01:40:00,16.3,14.6,30.04,NW,316,0.0,22.0,93,0.00,,,0.00,Wunderground v.1.15,2013-02-25 05:40:00,
2013-02-25 01:50:00,15.4,13.5,30.05,NW,316,0.0,22.0,92,0.00,,,0.00,Wunderground v.1.15,2013-02-25 05:50:00,
2013-02-25 02:00:00,14.9,13.2,30.05,SSW,204,0.0,22.0,93,0.00,,,0.00,Wunderground v.1.15,2013-02-25 06:00:00,
2013-02-25 02:10:00,14.5,12.8,30.05,SSW,205,0.0,22.0,93,0.00,,,0.00,Wunderground v.1.15,2013-02-25 06:10:00,
2013-02-25 02:20:00,14.6,13.2,30.04,NW,315,0.0,22.0,94,0.00,,,0.00,Wunderground v.1.15,2013-02-25 06:20:00,
2013-02-25 02:30:00,16.3,15.1,30.04,NW,313,1.0,1.0,95,0.00,,,0.00,Wunderground v.1.15,2013-02-25 06:30:00,
2013-02-25 02:40:00,17.1,15.9,30.04,NNW,333,1.0,1.0,95,0.00,,,0.00,Wunderground v.1.15,2013-02-25 06:40:00,
2013-02-25 02:50:00,17.5,16.1,30.04,NW,308,1.0,1.0,94,0.00,,,0.00,Wunderground v.1.15,2013-02-25 06:50:00,
2013-02-25 03:00:00,18.1,16.7,30.04,NW,323,1.0,22.0,94,0.00,,,0.00,Wunderground v.1.15,2013-02-25 07:00:00,
2013-02-25 03:10:00,18.5,17.1,30.04,NW,314,1.0,22.0,94,0.00,,,0.00,Wunderground v.1.15,2013-02-25 07:10:00,
2013-02-25 03:20:00,18.9,17.5,30.04,North,349,2.0,22.0,94,0.00,,,0.00,Wunderground v.1.15,2013-02-25 07:20:00,
2013-02-25 03:30:00,19.2,17.8,30.04,NNW,333,2.0,2.0,94,0.00,,,0.00,Wunderground v.1.15,2013-02-25 07:30:00,
2013-02-25 03:40:00,19.3,17.9,30.05,NW,311,2.0,2.0,94,0.00,,,0.00,Wunderground v.1.15,2013-02-25 07:40:00,
2013-02-25 03:50:00,19.4,18.0,30.04,NW,316,2.0,22.0,94,0.00,,,0.00,Wunderground v.1.15,2013-02-25 07:50:00,
2013-02-25 04:00:00,19.5,18.1,30.05,NW,317,2.0,22.0,94,0.00,,,0.00,Wunderground v.1.15,2013-02-25 08:00:00,
2013-02-25 04:10:00,19.7,18.0,30.05,North,351,2.0,22.0,93,0.00,,,0.00,Wunderground v.1.15,2013-02-25 08:10:00,
2013-02-25 04:20:00,19.8,18.1,30.05,NW,311,3.0,22.0,93,0.00,,,0.00,Wunderground v.1.15,2013-02-25 08:20:00,
2013-02-25 04:30:00,19.9,18.2,30.05,NW,307,2.0,22.0,93,0.00,,,0.00,Wunderground v.1.15,2013-02-25 08:30:00,
2013-02-25 04:40:00,19.7,18.0,30.06,NW,304,2.0,22.0,93,0.00,,,0.00,Wunderground v.1.15,2013-02-25 08:40:00,
2013-02-25 04:50:00,19.8,18.1,30.06,NNW,345,2.0,22.0,93,0.00,,,0.00,Wunderground v.1.15,2013-02-25 08:50:00,
2013-02-25 05:00:00,19.8,18.1,30.06,North,11,2.0,22.0,93,0.00,,,0.00,Wunderground v.1.15,2013-02-25 09:00:00,
2013-02-25 05:10:00,20.0,18.3,30.07,NNW,328,2.0,22.0,93,0.00,,,0.00,Wunderground v.1.15,2013-02-25 09:10:00,
2013-02-25 05:20:00,20.0,18.3,30.07,NW,312,2.0,2.0,93,0.00,,,0.00,Wunderground v.1.15,2013-02-25 09:20:00,
2013-02-25 05:30:00,19.9,18.2,30.07,WNW,300,2.0,22.0,93,0.00,,,0.00,Wunderground v.1.15,2013-02-25 09:30:00,
2013-02-25 05:40:00,19.8,17.9,30.08,NNW,345,2.0,2.0,92,0.00,,,0.00,Wunderground v.1.15,2013-02-25 09:40:00,
2013-02-25 05:50:00,19.9,18.2,30.08,NNW,328,2.0,22.0,93,0.00,,,0.00,Wunderground v.1.15,2013-02-25 09:50:00,
2013-02-25 06:00:00,20.0,18.3,30.08,NW,309,2.0,2.0,93,0.00,,,0.00,Wunderground v.1.15,2013-02-25 10:00:00,
2013-02-25 06:10:00,20.2,18.5,30.08,NNW,328,2.0,22.0,93,0.00,,,0.00,Wunderground v.1.15,2013-02-25 10:10:00,
2013-02-25 06:20:00,20.4,18.7,30.09,NW,325,2.0,2.0,93,0.00,,,0.00,Wunderground v.1.15,2013-02-25 10:20:00,
2013-02-25 06:30:00,20.6,18.9,30.09,NNW,330,2.0,2.0,93,0.00,,,0.00,Wunderground v.1.15,2013-02-25 10:30:00,
2013-02-25 06:40:00,20.8,19.1,30.09,NW,318,2.0,22.0,93,0.00,,,0.00,Wunderground v.1.15,2013-02-25 10:40:00,
2013-02-25 06:50:00,20.8,19.1,30.10,NNW,330,2.0,22.0,93,0.00,,,0.00,Wunderground v.1.15,2013-02-25 10:50:00,
2013-02-25 07:00:00,20.8,19.1,30.10,North,1,2.0,22.0,93,0.00,,,0.00,Wunderground v.1.15,2013-02-25 11:00:00,
2013-02-25 07:10:00,20.9,19.2,30.11,NW,308,2.0,2.0,93,0.00,,,0.00,Wunderground v.1.15,2013-02-25 11:10:00,
2013-02-25 07:20:00,21.1,19.4,30.11,NNW,330,2.0,22.0,93,0.00,,,0.00,Wunderground v.1.15,2013-02-25 11:20:00,
2013-02-25 07:30:00,21.9,20.2,30.12,NW,304,2.0,22.0,93,0.00,,,0.00,Wunderground v.1.15,2013-02-25 11:30:00,
2013-02-25 07:40:00,22.0,20.0,30.12,NNE,20,2.0,2.0,92,0.00,,,0.00,Wunderground v.1.15,2013-02-25 11:40:00,
2013-02-25 07:50:00,23.0,21.0,30.12,NNW,328,2.0,22.0,92,0.00,,,0.00,Wunderground v.1.15,2013-02-25 11:50:00,
2013-02-25 08:00:00,23.9,21.7,30.13,NNW,338,3.0,3.0,91,0.00,,,0.00,Wunderground v.1.15,2013-02-25 12:00:00,
2013-02-25 08:10:00,24.6,22.1,30.13,NW,326,2.0,2.0,90,0.00,,,0.00,Wunderground v.1.15,2013-02-25 12:10:00,
2013-02-25 08:20:00,25.2,22.1,30.13,NNE,18,2.0,22.0,88,0.00,,,0.00,Wunderground v.1.15,2013-02-25 12:20:00,
2013-02-25 08:30:00,25.6,22.5,30.13,North,354,2.0,22.0,88,0.00,,,0.00,Wunderground v.1.15,2013-02-25 12:30:00,
2013-02-25 08:40:00,26.0,22.7,30.14,NNW,347,3.0,22.0,87,0.00,,,0.00,Wunderground v.1.15,2013-02-25 12:40:00,
2013-02-25 08:50:00,26.6,23.3,30.14,NW,321,3.0,3.0,87,0.00,,,0.00,Wunderground v.1.15,2013-02-25 12:50:00,
2013-02-25 09:00:00,27.2,23.6,30.14,North,4,3.0,22.0,86,0.00,,,0.00,Wunderground v.1.15,2013-02-25 13:00:00,
2013-02-25 09:10:00,27.8,23.9,30.14,WNW,297,3.0,22.0,85,0.00,,,0.00,Wunderground v.1.15,2013-02-25 13:10:00,
2013-02-25 09:20:00,28.1,24.2,30.14,NNE,20,3.0,22.0,85,0.00,,,0.00,Wunderground v.1.15,2013-02-25 13:20:00,
2013-02-25 09:30:00,28.8,24.6,30.14,North,354,3.0,3.0,84,0.00,,,0.00,Wunderground v.1.15,2013-02-25 13:30:00,
2013-02-25 09:40:00,29.2,24.7,30.14,NW,321,2.0,22.0,83,0.00,,,0.00,Wunderground v.1.15,2013-02-25 13:40:00,
2013-02-25 09:50:00,29.6,24.8,30.14,North,353,3.0,22.0,82,0.00,,,0.00,Wunderground v.1.15,2013-02-25 13:50:00,
2013-02-25 10:00:00,29.7,24.9,30.15,NW,316,3.0,22.0,82,0.00,,,0.00,Wunderground v.1.15,2013-02-25 14:00:00,
2013-02-25 10:10:00,30.1,25.3,30.15,NW,316,3.0,3.0,82,0.00,,,0.00,Wunderground v.1.15,2013-02-25 14:10:00,
2013-02-25 10:20:00,30.5,25.4,30.15,NW,316,3.0,22.0,81,0.00,,,0.00,Wunderground v.1.15,2013-02-25 14:20:00,
2013-02-25 10:30:00,30.6,25.2,30.16,NW,307,3.0,22.0,80,0.00,,,0.00,Wunderground v.1.15,2013-02-25 14:30:00,
2013-02-25 10:40:00,31.1,26.0,30.16,NNE,32,3.0,3.0,81,0.00,,,0.00,Wunderground v.1.15,2013-02-25 14:40:00,
2013-02-25 10:50:00,31.3,25.8,30.16,North,349,4.0,4.0,80,0.00,,,0.00,Wunderground v.1.15,2013-02-25 14:50:00,
2013-02-25 11:00:00,31.8,26.0,30.16,WNW,302,3.0,22.0,79,0.00,,,0.00,Wunderground v.1.15,2013-02-25 15:00:00,
2013-02-25 11:10:00,32.0,25.9,30.16,NW,326,4.0,4.0,78,0.00,,,0.00,Wunderground v.1.15,2013-02-25 15:10:00,
2013-02-25 11:20:00,32.4,26.6,30.17,NW,319,4.0,22.0,79,0.00,,,0.00,Wunderground v.1.15,2013-02-25 15:20:00,
2013-02-25 11:30:00,32.6,26.5,30.17,NW,308,3.0,22.0,78,0.00,,,0.00,Wunderground v.1.15,2013-02-25 15:30:00,
2013-02-25 11:40:00,32.8,26.7,30.17,NNW,338,3.0,22.0,78,0.00,,,0.00,Wunderground v.1.15,2013-02-25 15:40:00,
2013-02-25 11:50:00,32.7,26.3,30.17,NNW,342,4.0,4.0,77,0.00,,,0.00,Wunderground v.1.15,2013-02-25 15:50:00,
2013-02-25 12:00:00,32.9,26.2,30.17,NNE,18,3.0,3.0,76,0.00,,,0.00,Wunderground v.1.15,2013-02-25 16:00:00,
2013-02-25 12:10:00,32.9,26.2,30.17,NW,311,3.0,3.0,76,0.00,,,0.00,Wunderground v.1.15,2013-02-25 16:10:00,
2013-02-25 12:20:00,32.7,26.3,30.17,North,358,3.0,22.0,77,0.00,,,0.00,Wunderground v.1.15,2013-02-25 16:20:00,
2013-02-25 12:30:00,32.5,26.1,30.17,NE,46,4.0,22.0,77,0.00,,,0.00,Wunderground v.1.15,2013-02-25 16:30:00,
2013-02-25 12:40:00,32.8,26.4,30.17,NNE,20,3.0,22.0,77,0.00,,,0.00,Wunderground v.1.15,2013-02-25 16:40:00,
2013-02-25 12:50:00,32.6,26.2,30.17,NNE,13,4.0,4.0,77,0.00,,,0.00,Wunderground v.1.15,2013-02-25 16:50:00,
2013-02-25 13:00:00,32.1,25.7,30.17,NNW,344,5.0,22.0,77,0.00,,,0.00,Wunderground v.1.15,2013-02-25 17:00:00,
2013-02-25 13:10:00,32.0,25.6,30.18,NW,319,4.0,4.0,77,0.00,,,0.00,Wunderground v.1.15,2013-02-25 17:10:00,
2013-02-25 13:20:00,32.1,25.4,30.18,NNW,341,4.0,4.0,76,0.00,,,0.00,Wunderground v.1.15,2013-02-25 17:20:00,
2013-02-25 13:30:00,32.7,25.6,30.18,North,356,4.0,4.0,75,0.00,,,0.00,Wunderground v.1.15,2013-02-25 17:30:00,
2013-02-25 13:40:00,31.9,24.9,30.18,NW,326,4.0,22.0,75,0.00,,,0.00,Wunderground v.1.15,2013-02-25 17:40:00,
2013-02-25 13:50:00,31.4,24.7,30.18,North,5,4.0,22.0,76,0.00,,,0.00,Wunderground v.1.15,2013-02-25 17:50:00,
2013-02-25 14:00:00,31.1,24.1,30.19,NW,315,5.0,5.0,75,0.00,,,0.00,Wunderground v.1.15,2013-02-25 18:00:00,
2013-02-25 14:10:00,31.0,23.7,30.19,NW,325,5.0,5.0,74,0.00,,,0.00,Wunderground v.1.15,2013-02-25 18:10:00,
2013-02-25 14:20:00,30.9,23.6,30.19,NW,319,4.0,22.0,74,0.00,,,0.00,Wunderground v.1.15,2013-02-25 18:20:00,
2013-02-25 14:30:00,30.9,23.9,30.19,NNW,342,5.0,5.0,75,0.00,,,0.00,Wunderground v.1.15,2013-02-25 18:30:00,
2013-02-25 14:40:00,30.6,23.6,30.20,NW,319,5.0,22.0,75,0.00,,,0.00,Wunderground v.1.15,2013-02-25 18:40:00,
2013-02-25 14:50:00,30.2,22.9,30.20,NNW,343,4.0,4.0,74,0.00,,,0.00,Wunderground v.1.15,2013-02-25 18:50:00,
2013-02-25 15:00:00,30.7,23.4,30.20,NNE,27,4.0,4.0,74,0.00,,,0.00,Wunderground v.1.15,2013-02-25 19:00:00,
2013-02-25 15:10:00,30.2,23.2,30.21,NNW,335,4.0,22.0,75,0.00,,,0.00,Wunderground v.1.15,2013-02-25 19:10:00,
2013-02-25 15:20:00,29.9,22.9,30.21,NW,314,4.0,22.0,75,0.00,,,0.00,Wunderground v.1.15,2013-02-25 19:20:00,
2013-02-25 15:30:00,29.8,23.2,30.22,North,349,4.0,4.0,76,0.00,,,0.00,Wunderground v.1.15,2013-02-25 19:30:00,
2013-02-25 15:40:00,29.6,23.0,30.23,WNW,303,3.0,22.0,76,0.00,,,0.00,Wunderground v.1.15,2013-02-25 19:40:00,
2013-02-25 15:50:00,29.5,22.9,30.23,North,349,3.0,3.0,76,0.00,,,0.00,Wunderground v.1.15,2013-02-25 19:50:00,
2013-02-25 16:00:00,29.4,23.1,30.24,NW,314,3.0,22.0,77,0.00,,,0.00,Wunderground v.1.15,2013-02-25 20:00:00,
2013-02-25 16:10:00,29.2,22.6,30.24,North,359,4.0,22.0,76,0.00,,,0.00,Wunderground v.1.15,2013-02-25 20:10:00,
2013-02-25 16:20:00,29.0,22.1,30.24,WNW,297,3.0,22.0,75,0.00,,,0.00,Wunderground v.1.15,2013-02-25 20:20:00,
2013-02-25 16:30:00,28.8,22.8,30.24,NNW,340,3.0,22.0,78,0.00,,,0.00,Wunderground v.1.15,2013-02-25 20:30:00,
2013-02-25 16:40:00,28.5,23.1,30.25,NNW,327,4.0,22.0,80,0.00,,,0.00,Wunderground v.1.15,2013-02-25 20:40:00,
2013-02-25 16:50:00,28.3,22.6,30.25,NNW,345,3.0,3.0,79,0.00,,,0.00,Wunderground v.1.15,2013-02-25 20:50:00,
2013-02-25 17:00:00,28.1,22.4,30.25,WNW,285,4.0,4.0,79,0.00,,,0.00,Wunderground v.1.15,2013-02-25 21:00:00,
2013-02-25 17:10:00,28.0,22.6,30.26,NNW,341,3.0,3.0,80,0.00,,,0.00,Wunderground v.1.15,2013-02-25 21:10:00,
2013-02-25 17:20:00,27.7,22.0,30.26,North,8,2.0,22.0,79,0.00,,,0.00,Wunderground v.1.15,2013-02-25 21:20:00,
2013-02-25 17:30:00,27.5,21.5,30.27,NW,326,3.0,22.0,78,0.00,,,0.00,Wunderground v.1.15,2013-02-25 21:30:00,
2013-02-25 17:40:00,27.3,21.0,30.28,NNW,336,2.0,22.0,77,0.00,,,0.00,Wunderground v.1.15,2013-02-25 21:40:00,
2013-02-25 17:50:00,27.3,21.0,30.28,NW,306,3.0,3.0,77,0.00,,,0.00,Wunderground v.1.15,2013-02-25 21:50:00,
2013-02-25 18:00:00,27.1,21.5,30.28,NW,325,2.0,2.0,79,0.00,,,0.00,Wunderground v.1.15,2013-02-25 22:00:00,
2013-02-25 18:10:00,27.0,21.7,30.29,West,266,1.0,1.0,80,0.00,,,0.00,Wunderground v.1.15,2013-02-25 22:10:00,
2013-02-25 18:20:00,26.9,21.8,30.29,NW,304,1.0,22.0,81,0.00,,,0.00,Wunderground v.1.15,2013-02-25 22:20:00,
2013-02-25 18:30:00,26.9,22.1,30.30,NNE,23,2.0,22.0,82,0.00,,,0.00,Wunderground v.1.15,2013-02-25 22:30:00,
2013-02-25 18:40:00,26.8,22.9,30.30,WNW,295,2.0,2.0,85,0.00,,,0.00,Wunderground v.1.15,2013-02-25 22:40:00,
2013-02-25 18:50:00,26.7,23.1,30.31,NNW,333,2.0,22.0,86,0.00,,,0.00,Wunderground v.1.15,2013-02-25 22:50:00,
2013-02-25 19:00:00,26.5,23.2,30.31,NW,314,2.0,2.0,87,0.00,,,0.00,Wunderground v.1.15,2013-02-25 23:00:00,
2013-02-25 19:10:00,26.4,23.1,30.32,NNW,328,2.0,22.0,87,0.00,,,0.00,Wunderground v.1.15,2013-02-25 23:10:00,
2013-02-25 19:20:00,26.4,22.5,30.32,NNW,347,3.0,22.0,85,0.00,,,0.00,Wunderground v.1.15,2013-02-25 23:20:00,
2013-02-25 19:30:00,26.4,22.5,30.32,NW,314,2.0,22.0,85,0.00,,,0.00,Wunderground v.1.15,2013-02-25 23:30:00,
2013-02-25 19:40:00,26.3,22.1,30.32,NNW,334,3.0,3.0,84,0.00,,,0.00,Wunderground v.1.15,2013-02-25 23:40:00,
2013-02-25 19:50:00,26.2,22.0,30.33,NW,321,2.0,22.0,84,0.00,,,0.00,Wunderground v.1.15,2013-02-25 23:50:00,
2013-02-25 20:00:00,26.1,21.9,30.33,North,356,2.0,22.0,84,0.00,,,0.00,Wunderground v.1.15,2013-02-26 00:00:00,
2013-02-25 20:10:00,26.0,21.5,30.34,NNW,329,2.0,22.0,83,0.00,,,0.00,Wunderground v.1.15,2013-02-26 00:10:00,
2013-02-25 20:20:00,25.7,21.3,30.35,NNW,340,2.0,22.0,83,0.00,,,0.00,Wunderground v.1.15,2013-02-26 00:20:00,
2013-02-25 20:30:00,25.3,20.6,30.35,West,278,2.0,2.0,82,0.00,,,0.00,Wunderground v.1.15,2013-02-26 00:30:00,
2013-02-25 20:40:00,25.3,20.9,30.35,NW,307,1.0,22.0,83,0.00,,,0.00,Wunderground v.1.15,2013-02-26 00:40:00,
2013-02-25 20:50:00,25.4,21.0,30.35,NNE,19,2.0,2.0,83,0.00,,,0.00,Wunderground v.1.15,2013-02-26 00:50:00,
2013-02-25 21:00:00,25.4,21.0,30.35,NNW,345,1.0,22.0,83,0.00,,,0.00,Wunderground v.1.15,2013-02-26 01:00:00,
2013-02-25 21:10:00,25.5,21.1,30.36,NW,308,1.0,1.0,83,0.00,,,0.00,Wunderground v.1.15,2013-02-26 01:10:00,
2013-02-25 21:20:00,25.4,21.0,30.36,NNW,334,1.0,22.0,83,0.00,,,0.00,Wunderground v.1.15,2013-02-26 01:20:00,
2013-02-25 21:30:00,25.2,20.5,30.36,NW,319,2.0,2.0,82,0.00,,,0.00,Wunderground v.1.15,2013-02-26 01:30:00,
2013-02-25 21:40:00,25.0,20.3,30.36,NW,311,1.0,22.0,82,0.00,,,0.00,Wunderground v.1.15,2013-02-26 01:40:00,
2013-02-25 21:50:00,24.8,20.1,30.36,NNW,343,1.0,22.0,82,0.00,,,0.00,Wunderground v.1.15,2013-02-26 01:50:00,
2013-02-25 22:00:00,24.6,19.9,30.36,NW,313,1.0,22.0,82,0.00,,,0.00,Wunderground v.1.15,2013-02-26 02:00:00,
2013-02-25 22:10:00,24.4,19.7,30.36,NW,323,1.0,22.0,82,0.00,,,0.00,Wunderground v.1.15,2013-02-26 02:10:00,
2013-02-25 22:20:00,24.3,19.3,30.36,NNW,334,1.0,22.0,81,0.00,,,0.00,Wunderground v.1.15,2013-02-26 02:20:00,
2013-02-25 22:30:00,23.8,19.1,30.36,WNW,284,0.0,22.0,82,0.00,,,0.00,Wunderground v.1.15,2013-02-26 02:30:00,
2013-02-25 22:40:00,23.5,18.8,30.36,NW,325,1.0,1.0,82,0.00,,,0.00,Wunderground v.1.15,2013-02-26 02:40:00,
2013-02-25 22:50:00,23.3,18.6,30.36,WNW,285,0.0,22.0,82,0.00,,,0.00,Wunderground v.1.15,2013-02-26 02:50:00,
2013-02-25 23:00:00,23.1,18.7,30.36,WNW,298,0.0,22.0,83,0.00,,,0.00,Wunderground v.1.15,2013-02-26 03:00:00,
2013-02-25 23:10:00,22.8,18.7,30.36,NW,309,0.0,22.0,84,0.00,,,0.00,Wunderground v.1.15,2013-02-26 03:10:00,
2013-02-25 23:20:00,22.7,18.6,30.36,NNW,327,0.0,22.0,84,0.00,,,0.00,Wunderground v.1.15,2013-02-26 03:20:00,
2013-02-25 23:30:00,22.2,18.1,30.36,NW,326,0.0,22.0,84,0.00,,,0.00,Wunderground v.1.15,2013-02-26 03:30:00,
2013-02-25 23:40:00,21.6,17.8,30.35,NW,325,0.0,22.0,85,0.00,,,0.00,Wunderground v.1.15,2013-02-26 03:40:00,
2013-02-25 23:50:00,20.9,17.4,30.35,NW,325,0.0,22.0,86,0.00,,,0.00,Wunderground v.1.15,2013-02-26 03:50:00,